Stinson Beach, California
Current Conditions -  °F | °C
As of 2:55 AM on Friday 19 Dec 2014 (Local Time) from KDVO Reporting Station
Haze Haze  
Wind Chill: 55°   Ceiling: 1500
Heat Index: 55°   Visibility: 1.5mi
Dew Point: 54°   Wind: 7mph
Humidity: 94%   Direction: 150°SSE
Pressure: 30.14"   Gusts: NA
Location:  37.9°N, 122.64°W
Report Text: KDVO 191055Z AUTO 15006KT 1 1/2SM BR SCT004 OVC015 13/12 A3014 RMK AO2
Loading
Personal Weather Stations






























Interactive Weather Map New forecast layout! Learn more

10-Day Weather Forecast

Advertisements
Track Severe Weather on mobile